createdAt,value
2017-06-14T00:00:11.269Z,15.49
2017-06-14T00:05:07.199Z,15.47
2017-06-14T00:10:02.897Z,15.33
2017-06-14T00:14:58.803Z,15.21
2017-06-14T00:19:54.575Z,14.94
2017-06-14T00:24:50.218Z,15.00
2017-06-14T00:29:46.019Z,14.94
2017-06-14T00:34:41.943Z,14.97
2017-06-14T00:39:38.866Z,14.97
2017-06-14T00:44:34.385Z,14.97
2017-06-14T00:49:30.293Z,14.96
2017-06-14T00:54:26.003Z,14.79
2017-06-14T00:59:21.978Z,14.43
2017-06-14T01:04:18.185Z,14.18
2017-06-14T01:09:13.818Z,14.32
2017-06-14T01:14:09.787Z,14.20
2017-06-14T01:19:05.808Z,14.08
2017-06-14T01:24:01.608Z,13.89
2017-06-14T01:28:57.371Z,13.78
2017-06-14T01:33:53.376Z,13.86
2017-06-14T01:38:49.894Z,13.85
2017-06-14T01:43:46.225Z,13.81
2017-06-14T01:48:41.559Z,13.54
2017-06-14T01:53:37.657Z,13.50
2017-06-14T01:58:33.474Z,13.72
2017-06-14T02:03:30.133Z,13.65
2017-06-14T02:08:25.684Z,13.39
2017-06-14T02:13:21.329Z,13.53
2017-06-14T02:18:17.369Z,13.49
2017-06-14T02:23:13.504Z,13.35
2017-06-14T02:28:09.913Z,13.31
2017-06-14T02:33:05.721Z,13.30
2017-06-14T02:38:02.322Z,13.18
2017-06-14T02:42:57.778Z,13.18
2017-06-14T02:47:53.882Z,13.00
2017-06-14T02:52:49.520Z,13.20
2017-06-14T02:57:45.247Z,13.22
2017-06-14T03:02:41.596Z,13.18
2017-06-14T03:07:36.970Z,12.91
2017-06-14T03:12:33.733Z,12.94
2017-06-14T03:17:29.179Z,12.91
2017-06-14T03:22:25.058Z,13.01
2017-06-14T03:27:22.566Z,13.01
2017-06-14T03:32:17.855Z,13.00
2017-06-14T03:37:13.992Z,12.82
2017-06-14T03:42:10.474Z,13.00
2017-06-14T03:47:06.085Z,12.79
2017-06-14T03:52:02.433Z,12.79
2017-06-14T03:56:58.283Z,12.76
2017-06-14T04:01:54.065Z,12.82
2017-06-14T04:06:51.200Z,12.68
2017-06-14T04:11:46.652Z,12.76
2017-06-14T04:16:42.616Z,12.90
2017-06-14T04:21:39.478Z,12.75
2017-06-14T04:26:34.982Z,12.43
2017-06-14T04:31:30.793Z,12.45
2017-06-14T04:36:26.935Z,13.30
2017-06-14T04:41:23.716Z,14.79
2017-06-14T04:46:21.459Z,15.70
2017-06-14T04:51:17.974Z,16.58
2017-06-14T04:56:15.831Z,17.23
2017-06-14T05:01:13.219Z,17.63
2017-06-14T05:06:10.429Z,17.59
2017-06-14T05:11:06.438Z,17.90
2017-06-14T05:16:03.259Z,18.59
2017-06-14T05:20:59.902Z,19.44
2017-06-14T05:25:56.672Z,19.08
2017-06-14T05:30:52.911Z,18.55
2017-06-14T05:35:49.125Z,18.47
2017-06-14T05:40:45.108Z,18.99
2017-06-14T05:45:41.390Z,17.98
2017-06-14T05:50:36.886Z,18.90
2017-06-14T05:55:33.951Z,19.84
2017-06-14T06:00:29.344Z,18.68
2017-06-14T06:05:24.424Z,17.48
2017-06-14T06:10:19.607Z,17.09
2017-06-14T06:15:15.112Z,16.74
2017-06-14T06:20:10.069Z,16.39
2017-06-14T06:25:06.914Z,16.69
2017-06-14T06:30:02.737Z,16.76
2017-06-14T06:34:58.476Z,16.72
2017-06-14T06:39:54.254Z,16.41
2017-06-14T06:44:50.393Z,16.10
2017-06-14T06:49:46.121Z,16.21
2017-06-14T06:54:43.112Z,16.35
2017-06-14T06:59:38.896Z,16.56
2017-06-14T07:04:34.911Z,16.74
2017-06-14T07:09:31.924Z,16.43
2017-06-14T07:14:27.634Z,16.65
2017-06-14T07:19:24.116Z,16.64
2017-06-14T07:24:19.983Z,16.99
2017-06-14T07:29:15.676Z,16.58
2017-06-14T07:34:11.758Z,16.61
2017-06-14T07:39:08.508Z,16.87
2017-06-14T07:44:04.846Z,17.42
2017-06-14T07:49:02.100Z,18.71
2017-06-14T07:54:03.316Z,19.29
2017-06-14T07:59:01.556Z,19.15
2017-06-14T08:03:58.738Z,19.73
2017-06-14T08:08:56.179Z,20.22
2017-06-14T08:13:53.561Z,21.35
2017-06-14T08:18:52.111Z,22.06
2017-06-14T08:23:48.813Z,22.47
2017-06-14T08:28:46.780Z,21.96
2017-06-14T08:33:43.128Z,22.10
2017-06-14T08:38:39.526Z,23.08
2017-06-14T08:43:36.395Z,23.95
2017-06-14T08:48:32.831Z,22.83
2017-06-14T08:53:28.911Z,22.87
2017-06-14T08:58:25.433Z,23.46
2017-06-14T09:03:21.525Z,22.60
2017-06-14T09:08:17.550Z,22.81
2017-06-14T09:13:14.005Z,23.32
2017-06-14T09:18:10.040Z,22.59
2017-06-14T09:23:05.834Z,21.98
2017-06-14T09:28:02.314Z,22.38
2017-06-14T09:32:59.745Z,23.34
2017-06-14T09:37:55.975Z,23.00
2017-06-14T09:42:52.346Z,23.56
2017-06-14T09:47:49.894Z,23.23
2017-06-14T09:52:45.741Z,23.51
2017-06-14T09:57:42.162Z,23.48
2017-06-14T10:02:37.761Z,22.96
2017-06-14T10:07:34.514Z,22.80
2017-06-14T10:12:30.081Z,21.57
2017-06-14T10:17:27.398Z,21.96
2017-06-14T10:22:22.734Z,22.43
2017-06-14T10:27:19.868Z,22.85
2017-06-14T10:32:16.558Z,23.65
2017-06-14T10:37:13.187Z,22.66
2017-06-14T10:42:08.446Z,22.13
2017-06-14T10:47:04.879Z,22.87
2017-06-14T10:52:00.978Z,22.78
2017-06-14T10:56:57.570Z,22.43
2017-06-14T11:01:53.617Z,22.69
2017-06-14T11:06:51.267Z,23.27
2017-06-14T11:11:47.324Z,22.84
2017-06-14T11:16:43.037Z,22.54
2017-06-14T11:21:39.637Z,23.56
2017-06-14T11:26:36.117Z,23.03
2017-06-14T11:31:32.566Z,23.51
2017-06-14T11:36:29.928Z,24.13
2017-06-14T11:41:29.136Z,23.63
2017-06-14T11:46:25.215Z,24.68
2017-06-14T11:51:23.055Z,24.74
2017-06-14T11:56:20.288Z,24.86
2017-06-14T12:01:16.593Z,24.78
2017-06-14T12:06:12.417Z,25.03
2017-06-14T12:11:09.485Z,25.85
2017-06-14T12:16:05.495Z,24.85
2017-06-14T12:21:03.238Z,24.10
2017-06-14T12:25:57.995Z,23.78
2017-06-14T12:30:53.417Z,24.51
2017-06-14T12:35:49.808Z,25.40
2017-06-14T12:40:47.146Z,26.00
2017-06-14T12:50:44.248Z,25.62
2017-06-14T12:55:40.067Z,26.03
2017-06-14T13:00:36.425Z,25.40
2017-06-14T13:05:32.422Z,24.13
2017-06-14T13:10:27.321Z,24.80
2017-06-14T13:15:23.117Z,25.03
2017-06-14T13:20:18.723Z,24.50
2017-06-14T13:25:14.886Z,24.51
2017-06-14T13:30:10.397Z,25.07
2017-06-14T13:35:14.995Z,25.65
2017-06-14T13:40:09.355Z,25.38
2017-06-14T13:45:05.669Z,25.08
2017-06-14T13:50:02.322Z,24.14
2017-06-14T13:54:58.481Z,23.98
2017-06-14T13:59:53.805Z,23.98
2017-06-14T14:04:50.249Z,24.28
2017-06-14T14:09:45.026Z,24.17
2017-06-14T14:14:40.378Z,23.99
2017-06-14T14:19:35.516Z,23.56
2017-06-14T14:24:30.767Z,23.83
2017-06-14T14:29:26.471Z,23.71
2017-06-14T14:34:22.150Z,23.58
2017-06-14T14:39:17.967Z,23.58
2017-06-14T14:44:14.726Z,23.62
2017-06-14T14:49:10.259Z,23.61
2017-06-14T14:54:06.032Z,23.44
2017-06-14T14:59:01.792Z,23.48
2017-06-14T15:03:57.909Z,23.61
2017-06-14T15:08:53.369Z,23.66
2017-06-14T15:13:49.147Z,23.56
2017-06-14T15:18:45.076Z,23.63
2017-06-14T15:23:41.019Z,23.50
2017-06-14T15:28:37.455Z,23.48
2017-06-14T15:33:33.493Z,23.47
2017-06-14T15:38:30.284Z,23.63
2017-06-14T15:43:25.834Z,23.62
2017-06-14T15:48:21.835Z,23.66
2017-06-14T15:53:17.790Z,23.62
2017-06-14T15:58:13.877Z,23.62
2017-06-14T16:03:09.789Z,23.76
2017-06-14T16:08:05.971Z,23.77
2017-06-14T16:13:01.875Z,23.58
2017-06-14T16:17:58.905Z,23.65
2017-06-14T16:22:54.691Z,23.65
2017-06-14T16:27:50.602Z,23.68
2017-06-14T16:32:47.685Z,23.77
2017-06-14T16:37:43.651Z,23.62
2017-06-14T16:42:39.640Z,23.48
2017-06-14T16:47:36.304Z,23.43
2017-06-14T16:52:32.240Z,23.46
2017-06-14T16:57:28.201Z,23.46
2017-06-14T17:02:24.033Z,23.63
2017-06-14T17:07:20.053Z,23.66
2017-06-14T17:12:17.293Z,23.62
2017-06-14T17:17:12.888Z,23.63
2017-06-14T17:22:08.757Z,23.47
2017-06-14T17:27:04.901Z,23.36
2017-06-14T17:32:01.221Z,23.43
2017-06-14T17:36:56.836Z,23.31
2017-06-14T17:41:53.239Z,23.34
2017-06-14T17:46:49.123Z,23.31
2017-06-14T17:51:44.892Z,23.21
2017-06-14T17:56:40.878Z,23.27
2017-06-14T18:01:36.707Z,23.25
2017-06-14T18:06:32.562Z,23.32
2017-06-14T18:11:28.587Z,23.39
2017-06-14T18:16:24.576Z,23.31
2017-06-14T18:21:20.454Z,23.31
2017-06-14T18:26:16.446Z,23.15
2017-06-14T18:31:12.535Z,22.93
2017-06-14T18:36:09.634Z,22.81
2017-06-14T18:41:05.165Z,22.78
2017-06-14T18:46:00.800Z,22.60
2017-06-14T18:50:57.972Z,22.50
2017-06-14T18:55:54.689Z,22.48
2017-06-14T19:00:51.122Z,22.38
2017-06-14T19:05:46.746Z,22.29
2017-06-14T19:10:42.550Z,22.13
2017-06-14T19:15:38.409Z,22.07
2017-06-14T19:20:34.230Z,21.93
2017-06-14T19:25:30.424Z,21.75
2017-06-14T19:30:27.106Z,21.64
2017-06-14T19:35:23.001Z,21.46
2017-06-14T19:40:19.377Z,21.33
2017-06-14T19:45:14.835Z,21.14
2017-06-14T19:50:11.946Z,21.05
2017-06-14T19:55:09.099Z,20.95
2017-06-14T20:00:04.407Z,20.81
2017-06-14T20:05:00.703Z,20.81
2017-06-14T20:09:56.675Z,20.63
2017-06-14T20:14:52.126Z,20.50
2017-06-14T20:19:48.280Z,20.40
2017-06-14T20:24:45.726Z,20.32
2017-06-14T20:29:41.423Z,20.25
2017-06-14T20:34:37.189Z,20.14
2017-06-14T20:39:34.153Z,20.06
2017-06-14T20:44:30.510Z,20.00
2017-06-14T20:49:26.243Z,19.91
2017-06-14T20:54:22.266Z,19.88
2017-06-14T20:59:19.144Z,19.82
2017-06-14T21:04:14.895Z,19.69
2017-06-14T21:09:10.694Z,19.70
2017-06-14T21:14:06.582Z,19.63
2017-06-14T21:19:02.367Z,19.56
2017-06-14T21:23:58.611Z,19.49
2017-06-14T21:28:54.712Z,19.36
2017-06-14T21:33:51.462Z,19.33
2017-06-14T21:38:47.159Z,19.26
2017-06-14T21:43:43.958Z,19.16
2017-06-14T21:48:39.643Z,19.11
2017-06-14T21:53:35.848Z,19.12
2017-06-14T21:58:31.403Z,19.16
2017-06-14T22:03:28.740Z,19.08
2017-06-14T22:08:24.255Z,18.92
2017-06-14T22:13:20.615Z,18.77
2017-06-14T22:18:16.331Z,18.68
2017-06-14T22:23:12.261Z,18.55
2017-06-14T22:28:08.007Z,18.45
2017-06-14T22:33:03.737Z,18.49
2017-06-14T22:37:59.400Z,18.47
2017-06-14T22:42:55.111Z,18.41
2017-06-14T22:47:51.252Z,18.35
2017-06-14T22:52:46.812Z,18.31
2017-06-14T22:57:43.061Z,18.33
2017-06-14T23:02:38.931Z,18.15
2017-06-14T23:07:35.728Z,18.01
2017-06-14T23:12:31.242Z,18.01
2017-06-14T23:17:27.262Z,18.18
2017-06-14T23:22:24.360Z,18.08
2017-06-14T23:27:20.101Z,17.86
2017-06-14T23:32:16.216Z,17.74
2017-06-14T23:37:11.937Z,17.72
2017-06-14T23:42:07.860Z,17.68
2017-06-14T23:47:03.804Z,17.60
2017-06-14T23:51:59.555Z,17.54
2017-06-14T23:56:55.512Z,17.34
